Time;durP1;ratioP1;P1;durP2;ratioP2;P2;SDS_P1;SDS_P2;PMS_P1;PMS_P2;Temp;Humidity;BMP_temperature;BMP_pressure;BME280_temperature;BME280_humidity;BME280_pressure;Samples;Min_cycle;Max_cycle;Signal;HPM_P1;HPM_P2
2023/11/07 00:01:22;;;;;;;5.17;2.20;;;;;5.80;96543.00;;;;5119425;27;20230;-84
2023/11/07 00:04:12;;;;;;;5.73;2.40;;;;;5.40;96539.00;;;;5112041;27;20664;-83
2023/11/07 00:07:01;;;;;;;6.10;2.50;;;;;5.90;96543.00;;;;5113730;27;20204;-83
2023/11/07 00:09:52;;;;;;;8.27;3.33;;;;;5.90;96550.00;;;;5109504;28;20687;-85
2023/11/07 00:12:41;;;;;;;5.97;2.37;;;;;6.30;96557.00;;;;5113240;27;20206;-85
2023/11/07 00:15:30;;;;;;;6.50;2.63;;;;;5.90;96557.00;;;;5112760;27;20207;-82
2023/11/07 00:18:21;;;;;;;5.73;2.33;;;;;6.10;96563.00;;;;5121571;27;20863;-84
2023/11/07 00:21:10;;;;;;;6.13;2.47;;;;;5.70;96557.00;;;;5113113;27;20241;-84
2023/11/07 00:23:59;;;;;;;7.43;3.03;;;;;6.20;96560.00;;;;5114220;27;20203;-82
2023/11/07 00:26:48;;;;;;;7.93;3.17;;;;;5.80;96544.00;;;;5112034;27;20206;-84
2023/11/07 00:29:37;;;;;;;3.50;1.57;;;;;5.70;96555.00;;;;5111816;27;20823;-82
2023/11/07 00:32:26;;;;;;;4.47;1.93;;;;;5.90;96563.00;;;;5114963;27;20219;-84
2023/11/07 00:35:17;;;;;;;4.47;1.97;;;;;5.80;96557.00;;;;5116464;27;20267;-82
2023/11/07 00:38:06;;;;;;;4.80;2.13;;;;;5.30;96565.00;;;;5119395;27;20210;-81
2023/11/07 00:40:55;;;;;;;8.40;3.57;;;;;5.00;96556.00;;;;5125059;27;20227;-82
2023/11/07 00:43:44;;;;;;;4.90;2.27;;;;;5.00;96554.00;;;;5110749;28;20583;-83
2023/11/07 00:46:33;;;;;;;4.63;2.13;;;;;5.20;96560.00;;;;5113029;28;20199;-82
2023/11/07 00:49:22;;;;;;;4.90;2.30;;;;;5.40;96564.00;;;;5112304;27;20202;-85
2023/11/07 00:52:12;;;;;;;6.67;3.03;;;;;5.40;96569.00;;;;5110064;27;20604;-86
2023/11/07 00:55:02;;;;;;;3.30;1.60;;;;;5.20;96566.00;;;;5117491;27;20221;-87
2023/11/07 00:57:51;;;;;;;7.87;3.63;;;;;5.00;96573.00;;;;5114985;28;20207;-83
2023/11/07 01:00:40;;;;;;;3.50;1.87;;;;;5.40;96581.00;;;;5111002;27;20237;-84
2023/11/07 01:03:29;;;;;;;3.33;1.80;;;;;5.70;96576.00;;;;5107866;28;20213;-82
2023/11/07 01:06:18;;;;;;;5.03;2.53;;;;;6.00;96581.00;;;;5112488;27;20211;-82
2023/11/07 01:09:11;;;;;;;7.57;3.60;;;;;6.10;96584.00;;;;5111119;27;20214;-83
2023/11/07 01:12:00;;;;;;;7.57;3.53;;;;;6.20;96586.00;;;;5111339;27;20230;-83
2023/11/07 01:14:49;;;;;;;8.70;3.80;;;;;6.00;96586.00;;;;5108929;28;20199;-83
2023/11/07 01:17:39;;;;;;;3.47;1.90;;;;;6.10;96590.00;;;;5111768;27;20718;-85
2023/11/07 01:20:28;;;;;;;3.73;1.83;;;;;5.60;96589.00;;;;5119412;27;20206;-84
2023/11/07 01:23:17;;;;;;;4.53;2.17;;;;;5.40;96572.00;;;;5113976;27;20205;-86
2023/11/07 01:26:09;;;;;;;3.53;1.80;;;;;5.10;96577.00;;;;5121278;27;20211;-83
2023/11/07 01:28:58;;;;;;;9.53;4.30;;;;;4.80;96587.00;;;;5116503;27;20570;-86
2023/11/07 01:31:49;;;;;;;6.40;2.97;;;;;5.00;96587.00;;;;5114303;27;20237;-84
2023/11/07 01:34:38;;;;;;;4.53;2.20;;;;;5.20;96592.00;;;;5113144;28;20206;-85
2023/11/07 01:37:27;;;;;;;2.77;1.37;;;;;4.90;96593.00;;;;5113954;27;20194;-83
2023/11/07 01:40:16;;;;;;;4.77;2.37;;;;;5.10;96595.00;;;;5116540;27;20593;-85
2023/11/07 01:43:16;;;;;;;2.53;1.47;;;;;5.50;96598.00;;;;5115279;27;20197;-83
2023/11/07 01:46:06;;;;;;;4.20;2.10;;;;;5.20;96601.00;;;;5107172;28;20206;-83
2023/11/07 01:48:56;;;;;;;6.20;3.10;;;;;5.40;96603.00;;;;5119141;27;20439;-83
2023/11/07 01:51:45;;;;;;;3.87;2.07;;;;;5.50;96605.00;;;;5112699;27;20894;-82
2023/11/07 01:54:35;;;;;;;4.43;2.20;;;;;5.80;96612.00;;;;5108024;28;20225;-84
2023/11/07 01:57:24;;;;;;;6.80;3.27;;;;;5.10;96624.00;;;;5112338;28;20592;-84
2023/11/07 02:00:17;;;;;;;4.03;2.07;;;;;5.10;96613.00;;;;5110345;28;20209;-83
2023/11/07 02:03:07;;;;;;;4.40;2.20;;;;;5.30;96612.00;;;;5110253;28;20190;-81
2023/11/07 02:05:57;;;;;;;6.93;3.33;;;;;5.50;96617.00;;;;5115623;28;20202;-83
2023/11/07 02:08:46;;;;;;;4.83;2.27;;;;;5.30;96617.00;;;;5107361;28;20206;-83
2023/11/07 02:11:35;;;;;;;3.60;1.90;;;;;5.10;96613.00;;;;5115562;27;20236;-84
2023/11/07 02:14:28;;;;;;;3.03;1.50;;;;;5.40;96617.00;;;;5118233;27;20207;-82
2023/11/07 02:17:19;;;;;;;8.27;3.80;;;;;5.30;96630.00;;;;5115136;27;20424;-83
2023/11/07 02:20:09;;;;;;;2.97;1.47;;;;;5.10;96637.00;;;;5114283;27;20710;-83
2023/11/07 02:23:03;;;;;;;5.77;2.97;;;;;5.00;96635.00;;;;5121795;27;20194;-83
2023/11/07 02:25:54;;;;;;;3.90;2.00;;;;;5.30;96629.00;;;;5110217;28;20210;-82
2023/11/07 02:28:46;;;;;;;4.47;2.10;;;;;5.40;96632.00;;;;5113385;28;20209;-83
2023/11/07 02:31:35;;;;;;;4.33;2.17;;;;;5.50;96627.00;;;;5116409;27;20237;-82
2023/11/07 02:34:24;;;;;;;4.33;2.27;;;;;5.50;96637.00;;;;5114570;27;20198;-83
2023/11/07 02:37:13;;;;;;;11.47;5.33;;;;;5.40;96626.00;;;;5115133;27;20425;-83
2023/11/07 02:40:02;;;;;;;6.10;3.13;;;;;5.40;96634.00;;;;5115874;27;20194;-84
2023/11/07 02:42:53;;;;;;;6.20;2.80;;;;;4.90;96631.00;;;;5117889;27;20228;-84
2023/11/07 02:45:42;;;;;;;7.17;3.13;;;;;5.20;96630.00;;;;5109999;27;20205;-83
2023/11/07 02:48:32;;;;;;;5.10;2.53;;;;;5.30;96640.00;;;;5115134;27;20447;-83
2023/11/07 02:51:22;;;;;;;3.90;1.97;;;;;5.40;96632.00;;;;5117806;27;20222;-84
2023/11/07 02:54:11;;;;;;;5.27;2.40;;;;;5.80;96637.00;;;;5113521;27;20420;-83
2023/11/07 02:57:00;;;;;;;7.67;3.60;;;;;6.00;96645.00;;;;5117491;27;20198;-82
2023/11/07 02:59:51;;;;;;;7.47;3.47;;;;;6.00;96646.00;;;;5108934;27;20750;-83
2023/11/07 03:02:40;;;;;;;7.47;3.27;;;;;5.70;96655.00;;;;5107392;28;20195;-82
2023/11/07 03:05:29;;;;;;;7.20;3.30;;;;;5.60;96653.00;;;;5110279;27;20274;-82
2023/11/07 03:08:18;;;;;;;4.53;2.23;;;;;5.80;96653.00;;;;5115560;27;20849;-82
2023/11/07 03:11:07;;;;;;;3.97;1.93;;;;;5.90;96656.00;;;;5112383;27;20229;-81
2023/11/07 03:13:56;;;;;;;7.77;3.70;;;;;5.70;96664.00;;;;5110485;28;20202;-84
2023/11/07 03:16:47;;;;;;;4.30;2.20;;;;;5.20;96662.00;;;;5113791;27;20214;-82
2023/11/07 03:19:36;;;;;;;2.53;1.40;;;;;5.30;96670.00;;;;5110782;27;20226;-84
2023/11/07 03:22:26;;;;;;;3.03;1.67;;;;;5.50;96668.00;;;;5116328;27;20219;-83
2023/11/07 03:25:16;;;;;;;4.10;1.97;;;;;5.50;96664.00;;;;5113560;27;20206;-83
2023/11/07 03:28:05;;;;;;;4.43;2.13;;;;;5.50;96665.00;;;;5108010;28;20746;-82
2023/11/07 03:30:54;;;;;;;6.87;3.23;;;;;5.00;96660.00;;;;5121338;27;20428;-82
2023/11/07 03:33:45;;;;;;;3.47;1.83;;;;;4.90;96667.00;;;;5110418;28;20598;-82
2023/11/07 03:36:34;;;;;;;6.53;3.10;;;;;5.70;96680.00;;;;5113118;27;20238;-81
2023/11/07 03:39:23;;;;;;;4.67;2.23;;;;;5.80;96682.00;;;;5115934;27;20425;-83
2023/11/07 03:42:12;;;;;;;6.57;3.00;;;;;5.80;96676.00;;;;5109421;28;20218;-83
2023/11/07 03:45:01;;;;;;;7.00;3.60;;;;;5.10;96688.00;;;;5111085;28;20209;-84
2023/11/07 03:47:50;;;;;;;5.70;2.80;;;;;4.70;96681.00;;;;5117200;27;20781;-82
2023/11/07 03:50:41;;;;;;;3.23;1.67;;;;;5.00;96684.00;;;;5106854;28;21045;-82
2023/11/07 03:53:30;;;;;;;3.30;1.80;;;;;5.40;96689.00;;;;5114513;27;20467;-82
2023/11/07 03:56:20;;;;;;;3.83;1.80;;;;;5.30;96688.00;;;;5120665;27;20206;-82
2023/11/07 03:59:09;;;;;;;6.30;3.00;;;;;4.90;96675.00;;;;5110861;28;20199;-83
2023/11/07 04:02:00;;;;;;;7.43;3.50;;;;;4.60;96677.00;;;;5113404;27;20667;-83
2023/11/07 04:04:49;;;;;;;7.07;3.27;;;;;4.60;96687.00;;;;5108902;28;20417;-83
2023/11/07 04:07:40;;;;;;;4.93;2.50;;;;;4.70;96680.00;;;;5110420;28;20436;-82
2023/11/07 04:10:29;;;;;;;5.00;2.20;;;;;5.10;96693.00;;;;5108981;27;20931;-83
2023/11/07 04:13:18;;;;;;;4.77;2.33;;;;;5.20;96689.00;;;;5110865;27;20464;-83
2023/11/07 04:16:08;;;;;;;6.00;2.77;;;;;5.40;96683.00;;;;5112222;27;20416;-83
2023/11/07 04:18:57;;;;;;;5.37;2.50;;;;;5.10;96690.00;;;;5114483;27;20451;-84
2023/11/07 04:21:46;;;;;;;3.37;1.63;;;;;5.30;96698.00;;;;5108739;27;20506;-83
2023/11/07 04:24:38;;;;;;;3.83;1.90;;;;;5.40;96698.00;;;;5106536;28;20416;-82
2023/11/07 04:27:27;;;;;;;5.27;2.47;;;;;5.80;96707.00;;;;5111613;27;20436;-82
2023/11/07 04:30:17;;;;;;;5.00;2.50;;;;;5.90;96702.00;;;;5108371;28;20593;-83
2023/11/07 04:33:06;;;;;;;8.70;3.77;;;;;5.80;96708.00;;;;5118993;27;20222;-83
2023/11/07 04:35:55;;;;;;;5.27;2.67;;;;;5.30;96701.00;;;;5108697;28;20693;-83
2023/11/07 04:38:45;;;;;;;3.60;1.80;;;;;5.10;96695.00;;;;5110532;28;20205;-84
2023/11/07 04:41:35;;;;;;;4.43;2.17;;;;;4.60;96691.00;;;;5108893;27;20226;-83
2023/11/07 04:44:24;;;;;;;5.03;2.40;;;;;4.50;96696.00;;;;5113887;27;20199;-80
2023/11/07 04:47:16;;;;;;;9.50;4.17;;;;;4.60;96701.00;;;;5113614;27;20603;-82
2023/11/07 04:50:06;;;;;;;6.43;3.23;;;;;4.70;96698.00;;;;5110362;28;20417;-82
2023/11/07 04:52:55;;;;;;;6.30;2.97;;;;;4.90;96702.00;;;;5108799;28;20467;-82
2023/11/07 04:55:44;;;;;;;4.70;2.23;;;;;4.70;96696.00;;;;5106498;28;20425;-83
2023/11/07 04:58:36;;;;;;;4.27;2.03;;;;;4.40;96698.00;;;;5110559;27;20424;-84
2023/11/07 05:01:25;;;;;;;4.80;2.27;;;;;4.90;96696.00;;;;5113809;27;20223;-82
2023/11/07 05:04:14;;;;;;;5.27;2.47;;;;;5.20;96698.00;;;;5115662;27;20425;-83
2023/11/07 05:07:03;;;;;;;8.53;3.80;;;;;5.20;96698.00;;;;5109666;27;20445;-83
2023/11/07 05:09:55;;;;;;;8.93;3.87;;;;;4.70;96696.00;;;;5112463;27;20429;-82
2023/11/07 05:12:44;;;;;;;3.73;1.80;;;;;4.50;96688.00;;;;5110910;27;20706;-84
2023/11/07 05:15:34;;;;;;;4.07;2.00;;;;;4.40;96703.00;;;;5125495;27;20943;-86
2023/11/07 05:18:23;;;;;;;4.57;2.27;;;;;4.50;96697.00;;;;5123085;27;20431;-83
2023/11/07 05:21:12;;;;;;;3.73;1.97;;;;;5.10;96709.00;;;;5112874;28;20444;-85
2023/11/07 05:24:02;;;;;;;6.90;3.13;;;;;5.20;96715.00;;;;5111957;27;20814;-83
2023/11/07 05:26:51;;;;;;;5.87;2.57;;;;;4.90;96708.00;;;;5112996;27;20431;-84
2023/11/07 05:29:40;;;;;;;3.60;1.70;;;;;4.60;96707.00;;;;5107762;27;20417;-86
2023/11/07 05:32:31;;;;;;;4.17;2.00;;;;;5.10;96711.00;;;;5112720;27;20505;-84
2023/11/07 05:35:20;;;;;;;6.53;3.00;;;;;5.00;96699.00;;;;5108189;28;20429;-85
2023/11/07 05:38:10;;;;;;;4.27;2.10;;;;;5.30;96709.00;;;;5111908;28;20432;-84
2023/11/07 05:40:59;;;;;;;5.77;2.73;;;;;5.40;96719.00;;;;5118503;27;20869;-85
2023/11/07 05:43:48;;;;;;;3.40;1.73;;;;;4.80;96706.00;;;;5107307;28;20428;-85
2023/11/07 05:46:37;;;;;;;4.53;2.20;;;;;4.90;96712.00;;;;5110994;28;20202;-85
2023/11/07 05:49:27;;;;;;;4.37;2.23;;;;;4.60;96698.00;;;;5111463;27;20444;-83
2023/11/07 05:52:16;;;;;;;5.80;2.87;;;;;4.10;96713.00;;;;5108824;28;20457;-83
2023/11/07 05:55:08;;;;;;;6.63;2.87;;;;;4.70;96724.00;;;;5114245;27;21137;-84
2023/11/07 05:57:57;;;;;;;7.10;3.30;;;;;5.10;96721.00;;;;5110898;28;20433;-82
2023/11/07 06:00:46;;;;;;;6.77;3.07;;;;;4.70;96730.00;;;;5107897;28;20468;-84
2023/11/07 06:03:35;;;;;;;4.43;2.10;;;;;4.60;96739.00;;;;5110917;28;20778;-84
2023/11/07 06:06:26;;;;;;;7.07;3.10;;;;;5.20;96750.00;;;;5109143;28;20506;-84
2023/11/07 06:09:15;;;;;;;4.20;1.87;;;;;5.60;96743.00;;;;5118164;28;20436;-84
2023/11/07 06:12:04;;;;;;;9.90;4.37;;;;;5.30;96740.00;;;;5114354;28;20452;-83
2023/11/07 06:14:53;;;;;;;11.07;4.67;;;;;5.40;96753.00;;;;5114078;28;20224;-83
2023/11/07 06:17:43;;;;;;;4.47;2.10;;;;;5.40;96761.00;;;;5118605;27;20981;-84
2023/11/07 06:20:32;;;;;;;5.43;2.43;;;;;5.10;96751.00;;;;5108072;28;20464;-83
2023/11/07 06:23:23;;;;;;;6.87;2.97;;;;;5.40;96754.00;;;;5100823;28;20453;-84
2023/11/07 06:26:12;;;;;;;4.83;2.13;;;;;5.50;96757.00;;;;5101116;28;20421;-84
2023/11/07 06:29:02;;;;;;;11.63;4.90;;;;;5.60;96765.00;;;;5109721;28;20950;-83
2023/11/07 06:31:51;;;;;;;8.13;3.43;;;;;5.40;96765.00;;;;5107906;28;20453;-86
2023/11/07 06:34:40;;;;;;;4.73;2.17;;;;;4.80;96754.00;;;;5107564;28;20222;-88
2023/11/07 06:37:33;;;;;;;3.63;1.77;;;;;4.70;96769.00;;;;5106728;28;20373;-84
2023/11/07 06:40:24;;;;;;;4.03;1.93;;;;;5.50;96782.00;;;;5102062;28;20425;-83
2023/11/07 06:43:13;;;;;;;6.13;2.77;;;;;5.80;96782.00;;;;5100749;28;20222;-84
2023/11/07 06:46:02;;;;;;;9.93;4.27;;;;;5.80;96780.00;;;;5105230;28;20202;-84
2023/11/07 06:48:51;;;;;;;10.33;4.23;;;;;5.70;96786.00;;;;5109151;28;20424;-85
2023/11/07 06:51:41;;;;;;;4.33;1.97;;;;;5.80;96778.00;;;;5104954;28;20253;-85
2023/11/07 06:54:30;;;;;;;4.77;2.17;;;;;5.60;96791.00;;;;5107870;28;20222;-86
2023/11/07 06:57:20;;;;;;;6.63;2.87;;;;;5.70;96788.00;;;;5115986;27;20210;-85
2023/11/07 07:00:10;;;;;;;4.57;2.10;;;;;6.00;96785.00;;;;5114722;27;20199;-88
2023/11/07 07:03:01;;;;;;;6.07;2.63;;;;;5.90;96791.00;;;;5110301;27;20199;-85
2023/11/07 07:05:50;;;;;;;7.33;3.10;;;;;6.10;96800.00;;;;5113564;27;20361;-87
2023/11/07 07:08:40;;;;;;;6.43;2.87;;;;;6.50;96795.00;;;;5104752;28;20204;-88
2023/11/07 07:11:29;;;;;;;5.30;2.47;;;;;6.40;96787.00;;;;5114037;27;20222;-86
2023/11/07 07:14:20;;;;;;;5.10;2.40;;;;;6.20;96796.00;;;;5116680;27;20415;-87
2023/11/07 07:17:10;;;;;;;9.73;3.87;;;;;6.70;96803.00;;;;5114699;27;20206;-85
2023/11/07 07:19:59;;;;;;;7.97;3.53;;;;;6.90;96811.00;;;;5116583;27;20203;-85
2023/11/07 07:22:48;;;;;;;5.57;2.40;;;;;7.10;96811.00;;;;5109624;28;20207;-85
2023/11/07 07:25:37;;;;;;;6.47;2.80;;;;;7.40;96815.00;;;;5112633;27;20207;-85
2023/11/07 07:28:26;;;;;;;6.50;2.90;;;;;7.50;96815.00;;;;5101966;27;20203;-86
2023/11/07 07:31:19;;;;;;;7.13;3.07;;;;;7.30;96819.00;;;;5104836;27;20230;-84
2023/11/07 07:34:08;;;;;;;5.43;2.40;;;;;7.50;96816.00;;;;5110259;27;21938;-85
2023/11/07 07:36:57;;;;;;;5.67;2.57;;;;;8.00;96821.00;;;;5108865;28;20210;-84
2023/11/07 07:39:46;;;;;;;6.60;2.93;;;;;8.00;96823.00;;;;5112877;27;20201;-86
2023/11/07 07:42:35;;;;;;;4.07;2.00;;;;;8.20;96821.00;;;;5116277;27;20693;-86
2023/11/07 07:45:26;;;;;;;5.43;2.50;;;;;8.30;96824.00;;;;5110229;27;20195;-86
2023/11/07 07:48:17;;;;;;;4.03;1.97;;;6.20;99.90;8.20;96821.00;;;;5116392;27;20209;-85
2023/11/07 07:51:06;;;;;;;6.93;3.53;;;6.10;99.90;8.60;96830.00;;;;5106432;28;20249;-84
2023/11/07 07:53:55;;;;;;;8.17;3.67;;;6.20;99.90;8.60;96826.00;;;;5105118;27;20198;-88
2023/11/07 07:56:47;;;;;;;4.37;2.03;;;6.20;99.90;8.60;96825.00;;;;5104157;28;20686;-85
2023/11/07 07:59:40;;;;;;;3.60;1.83;;;6.50;99.90;8.80;96833.00;;;;5106988;28;20198;-88
2023/11/07 08:02:29;;;;;;;3.27;1.57;;;6.60;99.90;8.90;96830.00;;;;5105315;28;20217;-85
2023/11/07 08:05:20;;;;;;;5.83;2.40;;;6.70;99.90;8.90;96827.00;;;;5109004;28;20195;-87
2023/11/07 08:08:10;;;;;;;11.40;8.07;;;6.60;99.90;9.20;96834.00;;;;5109513;28;20243;-87
2023/11/07 08:10:58;;;;;;;10.20;4.27;;;6.70;99.90;9.50;96844.00;;;;5108700;28;20300;-86
2023/11/07 08:13:47;;;;;;;4.17;1.83;;;7.60;99.90;9.90;96849.00;;;;5106355;28;20194;-86
2023/11/07 08:16:36;;;;;;;5.43;2.37;;;;;10.20;96846.00;;;;5106887;28;20547;-87
2023/11/07 08:19:25;;;;;;;4.63;2.00;;;;;11.10;96855.00;;;;5108497;28;20217;-84
2023/11/07 08:22:16;;;;;;;7.20;3.30;;;;;10.90;96855.00;;;;5108914;28;20231;-86
2023/11/07 08:25:06;;;;;;;5.40;2.47;;;;;11.30;96857.00;;;;5106179;28;20268;-84
2023/11/07 08:27:56;;;;;;;7.23;3.40;;;;;11.40;96847.00;;;;5107390;28;20205;-85
2023/11/07 08:30:45;;;;;;;4.40;2.00;;;;;11.70;96860.00;;;;5105037;28;20214;-88
2023/11/07 08:33:37;;;;;;;2.77;1.50;;;;;11.50;96846.00;;;;5109851;28;20210;-86
2023/11/07 08:36:26;;;;;;;5.03;2.47;;;;;11.40;96857.00;;;;5107971;27;20199;-86
2023/11/07 08:39:24;;;;;;;4.63;2.40;;;;;11.70;96863.00;;;;5104274;28;20199;-86
2023/11/07 08:42:14;;;;;;;5.07;2.57;;;;;11.80;96857.00;;;;5106706;28;20702;-85
2023/11/07 08:45:04;;;;;;;4.00;2.10;;;;;11.80;96862.00;;;;5105765;28;20207;-85
2023/11/07 08:47:54;;;;;;;4.57;2.43;;;;;11.90;96869.00;;;;5107705;28;20206;-85
2023/11/07 08:50:43;;;;;;;3.67;1.90;;;;;12.00;96858.00;;;;5106665;28;20229;-85
2023/11/07 08:53:34;;;;;;;2.97;1.70;;;;;12.00;96867.00;;;;5103138;28;20195;-85
2023/11/07 08:56:25;;;;;;;3.43;1.90;;;;;12.20;96871.00;;;;5115898;28;20229;-87
2023/11/07 08:59:15;;;;;;;3.23;1.77;;;;;11.90;96860.00;;;;5114379;28;20676;-85
2023/11/07 09:02:04;;;;;;;6.30;3.47;;;;;12.20;96869.00;;;;5111172;28;20234;-86
2023/11/07 09:04:53;;;;;;;3.50;1.93;;;;;12.20;96865.00;;;;5112727;28;20194;-86
2023/11/07 09:07:42;;;;;;;3.43;1.90;;;;;12.40;96864.00;;;;5107640;28;20217;-85
2023/11/07 09:10:32;;;;;;;3.13;1.80;;;;;12.30;96865.00;;;;5112227;28;20207;-87
2023/11/07 09:13:27;;;;;;;3.83;2.10;;;;;12.30;96871.00;;;;5110679;27;20627;-85
2023/11/07 09:16:16;;;;;;;3.87;2.00;;;;;12.40;96866.00;;;;5108534;28;20215;-86
2023/11/07 09:19:05;;;;;;;8.53;4.60;;;;;12.80;96858.00;;;;5111046;28;20592;-85
2023/11/07 09:21:54;;;;;;;5.63;2.93;;;;;12.60;96862.00;;;;5100604;28;20229;-86
2023/11/07 09:24:44;;;;;;;2.77;1.60;;;;;12.60;96861.00;;;;5102736;27;20199;-85
2023/11/07 09:27:33;;;;;;;3.00;1.70;;;;;12.80;96866.00;;;;5099105;28;20206;-84
2023/11/07 09:30:23;;;;;;;4.37;2.33;;;;;13.00;96865.00;;;;5104883;28;20202;-86
2023/11/07 09:33:12;;;;;;;3.43;1.97;;;;;12.70;96860.00;;;;5105874;28;20210;-84
2023/11/07 09:36:02;;;;;;;3.73;2.07;;;;;13.00;96876.00;;;;5101414;28;20326;-84
2023/11/07 09:38:51;;;;;;;3.17;1.87;;;;;13.00;96870.00;;;;5104933;28;20805;-86
2023/11/07 09:41:42;;;;;;;3.27;1.77;;;;;13.20;96857.00;;;;5104775;28;20226;-87
2023/11/07 09:44:32;;;;;;;3.17;1.77;;;;;13.40;96854.00;;;;5104041;28;20213;-85
2023/11/07 09:47:23;;;;;;;5.13;2.77;;;;;13.30;96852.00;;;;5105401;28;20202;-84
2023/11/07 09:50:12;;;;;;;4.83;2.50;;;;;13.50;96855.00;;;;5101082;28;20634;-86
2023/11/07 09:53:02;;;;;;;6.87;3.57;;;;;13.80;96858.00;;;;5107311;28;20209;-87
2023/11/07 09:55:52;;;;;;;2.73;1.53;;;;;13.70;96858.00;;;;5104896;28;20714;-86
2023/11/07 09:58:45;;;;;;;3.13;1.73;;;;;13.70;96850.00;;;;5103501;27;20238;-87
2023/11/07 10:01:34;;;;;;;2.30;1.40;;;;;13.80;96858.00;;;;5110453;28;20223;-86
2023/11/07 10:04:25;;;;;;;2.83;1.60;;;;;13.60;96847.00;;;;5112184;28;20516;-87
2023/11/07 10:07:14;;;;;;;6.57;3.57;;;;;13.60;96851.00;;;;5112930;28;20202;-86
2023/11/07 10:10:05;;;;;;;4.23;2.47;;;;;13.60;96844.00;;;;5103960;28;20219;-87
2023/11/07 10:12:54;;;;;;;3.23;1.77;;;;;13.90;96844.00;;;;5106943;28;20214;-88
2023/11/07 10:15:44;;;;;;;3.80;2.10;;;;;13.90;96840.00;;;;5107746;28;20611;-85
2023/11/07 10:18:47;;;;;;;3.43;1.93;;;;;14.00;96817.00;;;;5095788;28;20219;-86
2023/11/07 10:21:38;;;;;;;3.07;1.83;;;;;15.30;96801.00;;;;5108259;28;20630;-87
2023/11/07 10:24:44;;;;;;;2.70;1.40;;;;;16.70;96799.00;;;;5110432;28;20205;-88
2023/11/07 10:27:33;;;;;;;3.23;1.80;;;;;17.20;96800.00;;;;5104541;28;20211;-86
2023/11/07 10:30:22;;;;;;;3.53;1.83;;;;;17.30;96780.00;;;;5103465;28;20210;-86
2023/11/07 10:33:12;;;;;;;4.30;2.10;;;;;16.80;96814.00;;;;5103779;28;20202;-87
2023/11/07 10:36:02;;;;;;;4.10;1.87;;;;;16.80;96814.00;;;;5102844;27;20763;-86
2023/11/07 10:38:53;;;;;;;3.73;2.00;;;;;16.60;96762.00;;;;5099516;28;20202;-85
2023/11/07 10:41:42;;;;;;;2.37;1.23;;;;;16.70;96786.00;;;;5112448;28;20604;-88
2023/11/07 10:44:32;;;;;;;4.07;2.10;;;;;16.60;96803.00;;;;5110331;28;20247;-88
2023/11/07 10:47:22;;;;;;;7.07;3.47;;;;;16.30;96777.00;;;;5114728;28;20191;-87
2023/11/07 10:50:17;;;;;;;3.73;1.93;;;;;16.20;96793.00;;;;5109455;28;20320;-87
2023/11/07 10:53:06;;;;;;;5.07;2.40;;;;;15.90;96793.00;;;;5112161;27;20486;-87
2023/11/07 10:55:59;;;;;;;2.87;1.37;;;;;16.10;96778.00;;;;5107077;28;20231;-86
2023/11/07 10:59:00;;;;;;;3.80;1.73;;;;;16.80;96757.00;;;;5110094;28;20198;-86
2023/11/07 11:01:51;;;;;;;3.87;1.97;;;;;17.70;96759.00;;;;5109885;28;20230;-87
2023/11/07 11:04:42;;;;;;;2.70;1.40;;;;;17.70;96778.00;;;;5102636;28;20206;-86
2023/11/07 11:07:33;;;;;;;3.03;1.43;;;;;18.40;96774.00;;;;5098768;27;20194;-86
2023/11/07 11:10:27;;;;;;;5.07;2.23;;;;;18.40;96766.00;;;;5111954;28;20217;-87
2023/11/07 11:13:17;;;;;;;4.43;2.07;;;;;18.80;96744.00;;;;5106609;28;20207;-86
2023/11/07 11:16:07;;;;;;;7.97;3.63;;;;;19.30;96736.00;;;;5108410;28;20232;-86
2023/11/07 11:18:59;;;;;;;9.40;4.00;;;;;19.50;96724.00;;;;5104338;27;20214;-86
2023/11/07 11:21:58;;;;;;;5.63;2.37;;;;;20.10;96727.00;;;;5104556;28;20293;-86
2023/11/07 11:25:13;;;;;;;5.77;2.37;;;;;20.70;96725.00;;;;5104697;28;20222;-86
2023/11/07 11:28:05;;;;;;;9.70;3.97;;;;;19.90;96708.00;;;;5105504;28;20198;-85
2023/11/07 11:30:56;;;;;;;6.57;2.60;;;;;20.60;96739.00;;;;5105569;28;20608;-86
2023/11/07 11:33:46;;;;;;;5.07;1.87;;;;;21.30;96705.00;;;;5108666;27;20209;-85
2023/11/07 11:36:39;;;;;;;7.97;3.03;;;;;21.30;96726.00;;;;5104596;28;20221;-86
2023/11/07 11:39:55;;;;;;;6.27;2.33;;;;;21.10;96692.00;;;;5098619;27;20209;-86
2023/11/07 11:43:05;;;;;;;8.00;2.90;;;;;21.50;96722.00;;;;5068107;28;20205;-86
2023/11/07 11:45:58;;;;;;;9.27;3.37;;;;;21.60;96683.00;;;;5102368;28;20202;-85
2023/11/07 11:49:08;;;;;;;5.03;1.77;;;;;22.60;96679.00;;;;5103435;28;20203;-86
2023/11/07 11:51:57;;;;;;;7.57;2.50;;;;;22.10;96678.00;;;;5106440;28;20214;-85
2023/11/07 11:54:54;;;;;;;9.77;3.00;;;;;23.10;96666.00;;;;5106226;28;20206;-85
2023/11/07 11:58:15;;;;;;;4.80;1.70;;;;;23.10;96668.00;;;;5106121;28;20231;-87
2023/11/07 12:01:06;;;;;;;18.53;5.30;;;;;21.80;96657.00;;;;5045529;28;20733;-85
2023/11/07 12:03:59;;;;;;;18.73;5.70;;;;;20.60;96651.00;;;;5103869;28;20208;-85
2023/11/07 12:07:22;;;;;;;15.40;5.30;;;;;20.60;96639.00;;;;5098087;28;20255;-86
2023/11/07 12:10:13;;;;;;;27.90;19.03;;;;;22.30;96652.00;;;;5105086;28;20208;-87
2023/11/07 12:13:02;;;;;;;69.20;64.07;;;;;19.50;96663.00;;;;5106101;27;20665;-86
2023/11/07 12:15:51;;;;;;;8.47;2.47;;;;;19.20;96626.00;;;;5107654;28;20214;-85
2023/11/07 12:18:42;;;;;;;7.60;2.40;;;;;19.60;96628.00;;;;5105060;28;20217;-87
2023/11/07 12:21:31;;;;;;;6.27;1.90;;;;;20.80;96639.00;;;;5103665;28;20745;-86
2023/11/07 12:24:20;;;;;;;6.37;2.03;;;;;19.50;96620.00;;;;5110838;28;20210;-86
2023/11/07 12:27:10;;;;;;;24.13;7.00;;;;;20.70;96628.00;;;;5108503;28;20191;-86
2023/11/07 12:29:59;;;;;;;20.50;5.93;;;;;20.50;96620.00;;;;5101538;27;20234;-86
2023/11/07 12:32:48;;;;;;;4.97;1.57;;;;;21.10;96657.00;;;;5103104;28;20281;-86
2023/11/07 12:35:39;;;;;;;10.10;2.80;;;;;19.80;96640.00;;;;5098309;28;20203;-87
2023/11/07 12:38:28;;;;;;;9.73;2.67;;;;;20.90;96637.00;;;;5100468;28;20211;-85
2023/11/07 12:41:17;;;;;;;7.97;2.47;;;;;22.00;96622.00;;;;5106177;28;20295;-86
2023/11/07 12:44:14;;;;;;;11.23;3.40;;;;;23.20;96631.00;;;;5104478;27;20201;-86
2023/11/07 12:47:06;;;;;;;15.93;4.67;;;;;22.20;96664.00;;;;5103990;28;20213;-86
2023/11/07 12:49:56;;;;;;;7.37;2.27;;;;;22.20;96633.00;;;;5095801;28;20664;-86
2023/11/07 12:52:56;;;;;;;13.23;3.93;;;;;22.70;96609.00;;;;5102618;28;20594;-86
2023/11/07 12:55:51;;;;;;;9.07;2.70;;;;;22.60;96586.00;;;;5103228;28;20199;-86
2023/11/07 12:58:40;;;;;;;10.93;3.33;;;;;22.70;96604.00;;;;5102701;28;20226;-86
2023/11/07 13:01:29;;;;;;;8.83;2.60;;;;;21.70;96641.00;;;;5100892;28;20226;-86
2023/11/07 13:04:19;;;;;;;5.77;1.83;;;;;21.10;96639.00;;;;5109156;28;20198;-86
2023/11/07 13:07:08;;;;;;;16.20;4.93;;;;;20.80;96622.00;;;;5110128;28;20655;-85
2023/11/07 13:09:59;;;;;;;11.93;3.60;;;;;20.70;96621.00;;;;5106045;28;20205;-87
2023/11/07 13:12:49;;;;;;;8.83;2.63;;;;;20.20;96622.00;;;;5101683;28;20202;-86
2023/11/07 13:15:38;;;;;;;8.93;2.67;;;;;19.60;96612.00;;;;5104992;28;20203;-86
2023/11/07 13:18:27;;;;;;;10.37;3.17;;;;;19.90;96623.00;;;;5105608;27;20222;-85
2023/11/07 13:21:17;;;;;;;8.03;2.30;;;;;19.30;96615.00;;;;5105339;28;20218;-85
2023/11/07 13:24:07;;;;;;;10.53;3.07;;;;;18.30;96623.00;;;;5108285;28;20195;-86
2023/11/07 13:26:57;;;;;;;14.57;3.97;;;;;19.00;96618.00;;;;5107079;28;20659;-87
2023/11/07 13:29:46;;;;;;;9.77;2.77;;;;;18.90;96625.00;;;;5105916;28;20228;-85
2023/11/07 13:32:36;;;;;;;10.40;2.80;;;;;19.00;96622.00;;;;5105968;28;20215;-86
2023/11/07 13:35:25;;;;;;;13.67;3.80;;;;;18.70;96618.00;;;;5100107;27;21755;-87
2023/11/07 13:38:14;;;;;;;5.63;2.03;;;;;17.90;96614.00;;;;5106742;28;20726;-85
2023/11/07 13:41:04;;;;;;;10.70;4.07;;;;;18.70;96613.00;;;;5103332;28;20245;-86
2023/11/07 13:43:54;;;;;;;5.83;2.30;;;;;18.90;96615.00;;;;5102760;28;20207;-86
2023/11/07 13:46:43;;;;;;;3.33;1.37;;;;;20.10;96568.00;;;;5102376;28;20207;-84
2023/11/07 13:49:33;;;;;;;4.23;1.60;;;;;21.60;96567.00;;;;5107301;28;20211;-86
2023/11/07 13:52:24;;;;;;;6.50;2.37;;;;;22.50;96569.00;;;;5105556;28;20223;-86
2023/11/07 13:55:13;;;;;;;12.83;4.43;;;;;23.90;96565.00;;;;5107040;28;20213;-85
2023/11/07 13:58:02;;;;;;;12.93;4.53;;;;;23.90;96568.00;;;;5096965;28;20219;-86
2023/11/07 14:00:53;;;;;;;7.60;2.63;;;;;23.10;96569.00;;;;5097663;28;20698;-86
2023/11/07 14:03:42;;;;;;;8.50;3.00;;;;;24.50;96573.00;;;;5100123;28;20207;-86
2023/11/07 14:06:31;;;;;;;10.10;3.53;;;;;24.40;96567.00;;;;5102215;27;20201;-86
2023/11/07 14:09:20;;;;;;;8.10;2.77;;;;;24.80;96575.00;;;;5102467;28;20207;-86
2023/11/07 14:12:09;;;;;;;19.73;6.37;;;;;24.50;96596.00;;;;5096570;28;20223;-86
2023/11/07 14:14:58;;;;;;;14.40;4.80;;;;;23.80;96607.00;;;;5105632;28;20196;-85